Time;durP1;ratioP1;P1;durP2;ratioP2;P2;SDS_P1;SDS_P2;PMS_P1;PMS_P2;Temp;Humidity;BMP_temperature;BMP_pressure;BME280_temperature;BME280_humidity;BME280_pressure;Samples;Min_cycle;Max_cycle;Signal;HPM_P1;HPM_P2
2022/03/27 00:01:47;;;;;;;20.25;8.88;;;;;;;3.95;62.05;97792.84;4985274;28;20050;-63
2022/03/27 00:04:14;;;;;;;21.15;8.25;;;;;;;3.64;61.88;97755.47;4984819;28;20050;-57
2022/03/27 00:06:41;;;;;;;17.48;8.27;;;;;;;3.95;62.46;97795.56;4985421;28;20065;-57
2022/03/27 00:09:08;;;;;;;19.95;8.93;;;;;;;3.49;61.66;97745.69;4985284;28;20456;-62
2022/03/27 00:11:34;;;;;;;16.40;7.25;;;;;;;3.77;61.94;97760.94;4983625;28;20839;-57
2022/03/27 00:14:04;;;;;;;14.82;6.88;;;;;;;3.90;62.04;97778.47;4983485;28;20527;-62
2022/03/27 00:16:31;;;;;;;16.92;7.32;;;;;;;3.58;61.99;97735.63;4984728;28;20060;-56
2022/03/27 00:18:58;;;;;;;21.30;9.10;;;;;;;3.43;62.98;97726.94;4984475;28;20054;-62
2022/03/27 00:21:26;;;;;;;23.10;8.95;;;;;;;3.75;63.74;97793.31;4984961;28;20057;-63
2022/03/27 00:23:53;;;;;;;15.68;7.57;;;;;;;3.73;63.02;97776.34;4983594;28;20062;-62
2022/03/27 00:26:21;;;;;;;16.73;8.00;;;;;;;3.76;62.43;97775.75;4985256;28;20046;-57
2022/03/27 00:28:49;;;;;;;29.60;11.25;;;;;;;3.68;63.68;97768.28;4984751;28;20058;-62
2022/03/27 00:31:16;;;;;;;28.40;11.05;;;;;;;3.67;64.47;97777.59;4984685;28;20047;-63
2022/03/27 00:33:45;;;;;;;21.80;9.50;;;;;;;3.08;66.51;97781.31;4984632;28;20065;-57
2022/03/27 00:36:14;;;;;;;27.55;11.43;;;;;;;2.93;67.80;97772.59;4984264;28;20054;-65
2022/03/27 00:38:42;;;;;;;26.38;11.23;;;;;;;3.16;67.28;97760.66;4982335;28;20058;-63
2022/03/27 00:41:09;;;;;;;26.15;10.73;;;;;;;2.72;67.61;97703.78;4991774;28;20057;-56
2022/03/27 00:43:36;;;;;;;62.58;15.45;;;;;;;2.82;67.11;97695.41;4995198;28;20056;-63
2022/03/27 00:46:03;;;;;;;47.60;14.27;;;;;;;2.83;67.83;97739.94;5002814;28;20421;-56
2022/03/27 00:48:30;;;;;;;36.88;12.27;;;;;;;2.88;67.87;97742.59;5002784;28;20600;-63
2022/03/27 00:50:57;;;;;;;26.30;10.88;;;;;;;2.85;67.51;97732.25;5002420;28;20145;-63
2022/03/27 00:53:24;;;;;;;25.20;10.55;;;;;;;3.01;67.70;97758.22;5003880;28;20049;-64
2022/03/27 00:55:51;;;;;;;23.98;8.70;;;;;;;2.94;66.04;97777.75;5004118;28;20057;-57
2022/03/27 00:58:18;;;;;;;41.38;11.32;;;;;;;2.80;68.14;97746.03;5003613;28;20141;-63
2022/03/27 01:01:03;;;;;;;38.03;12.30;;;;;;;2.58;68.69;97699.44;5001960;28;20080;-58
2022/03/27 01:03:31;;;;;;;21.08;9.35;;;;;;;2.77;68.54;97747.47;5003737;28;20060;-63
2022/03/27 01:05:58;;;;;;;24.98;9.70;;;;;;;2.65;68.83;97749.06;5003723;28;20062;-56
2022/03/27 01:11:22;;;;;;;20.00;7.55;;;;;;;2.05;69.83;97662.72;5003946;28;20061;-63
2022/03/27 01:13:52;;;;;;;23.42;9.50;;;;;;;2.41;70.22;97721.91;5002182;28;20050;-63
2022/03/27 01:16:41;;;;;;;26.70;9.35;;;;;;;2.19;68.82;97669.84;5004251;28;20373;-58
2022/03/27 01:19:13;;;;;;;23.77;9.57;;;;;;;2.71;68.80;97739.66;5002310;28;20050;-60
2022/03/27 01:21:42;;;;;;;25.35;10.23;;;;;;;2.03;70.90;97742.25;5003662;28;20053;-64
2022/03/27 01:24:09;;;;;;;21.02;9.68;;;;;;;1.78;73.36;97758.22;5002314;28;20133;-64
2022/03/27 01:26:37;;;;;;;36.85;10.88;;;;;;;1.76;73.64;97758.53;5003690;28;20050;-64
2022/03/27 01:29:05;;;;;;;26.25;9.95;;;;;;;1.31;72.62;97659.03;5003258;28;20069;-60
2022/03/27 01:31:33;;;;;;;28.80;10.13;;;;;;;2.08;71.53;97749.56;5003906;28;20410;-63
2022/03/27 01:34:00;;;;;;;27.90;9.80;;;;;;;1.60;73.77;97750.88;5004262;28;20050;-58
2022/03/27 01:36:34;;;;;;;36.20;11.75;;;;;;;1.66;74.69;97749.69;5003225;28;20469;-57
2022/03/27 01:39:04;;;;;;;33.85;11.35;;;;;;;1.50;74.61;97689.84;5004222;28;20076;-57
2022/03/27 01:41:31;;;;;;;27.42;10.30;;;;;;;1.40;73.56;97631.88;5003840;28;20061;-64
2022/03/27 01:43:59;;;;;;;23.38;11.63;;;;;;;2.03;72.76;97779.69;4998637;28;20494;-64
2022/03/27 01:46:34;;;;;;;23.98;12.23;;;;;;;2.06;73.63;97751.75;4983771;28;20058;-60
2022/03/27 01:49:02;;;;;;;25.45;10.60;;;;;;;1.61;73.22;97662.41;4987793;28;20061;-64
2022/03/27 01:51:30;;;;;;;23.75;9.98;;;;;;;2.12;72.18;97726.00;4987596;28;20369;-62
2022/03/27 01:53:57;;;;;;;42.20;13.48;;;;;;;2.33;72.43;97725.34;4987444;28;20060;-58
2022/03/27 01:56:24;;;;;;;31.80;10.93;;;;;;;2.30;72.17;97757.91;4986530;28;20057;-58
2022/03/27 01:58:51;;;;;;;24.60;11.18;;;;;;;2.47;72.02;97742.56;4987337;28;20050;-64
2022/03/27 02:01:22;;;;;;;29.17;11.90;;;;;;;2.60;71.71;97722.66;4987381;28;20056;-64
2022/03/27 02:03:50;;;;;;;28.95;13.45;;;;;;;2.62;70.83;97749.69;4986956;28;20104;-64
2022/03/27 02:06:17;;;;;;;26.27;11.25;;;;;;;2.14;73.17;97751.09;4987129;28;20065;-58
2022/03/27 02:08:44;;;;;;;26.08;10.57;;;;;;;1.95;73.20;97740.19;4987588;28;20443;-58
2022/03/27 02:11:13;;;;;;;22.42;11.07;;;;;;;1.99;72.64;97743.16;4985847;28;20058;-64
2022/03/27 02:13:40;;;;;;;23.30;10.82;;;;;;;1.98;73.44;97736.03;4986377;28;20121;-66
2022/03/27 02:16:06;;;;;;;21.65;10.05;;;;;;;2.07;73.27;97731.53;4985736;28;20211;-58
2022/03/27 02:18:33;;;;;;;28.48;11.75;;;;;;;2.16;72.90;97746.97;4985949;28;20051;-58
2022/03/27 02:21:01;;;;;;;21.95;10.20;;;;;;;1.53;74.77;97715.75;4987317;28;20046;-57
2022/03/27 02:23:28;;;;;;;27.35;10.52;;;;;;;1.86;74.76;97716.59;4986236;28;20455;-58
2022/03/27 02:25:56;;;;;;;25.35;10.63;;;;;;;1.78;74.36;97730.91;4985201;28;20050;-58
2022/03/27 02:28:23;;;;;;;26.58;13.45;;;;;;;1.97;74.29;97737.16;4987259;28;20062;-58
2022/03/27 02:30:50;;;;;;;29.13;11.75;;;;;;;1.67;73.72;97677.56;4986503;28;20065;-56
2022/03/27 02:33:17;;;;;;;27.92;10.70;;;;;;;1.69;73.88;97708.97;4986953;28;20054;-64
2022/03/27 02:35:44;;;;;;;27.60;11.50;;;;;;;1.14;75.78;97702.38;4985464;28;20064;-63
2022/03/27 02:38:12;;;;;;;26.27;10.95;;;;;;;1.53;75.38;97743.84;4987068;28;20060;-59
2022/03/27 02:40:40;;;;;;;19.92;9.73;;;;;;;1.70;75.03;97737.88;4985185;28;20449;-57
2022/03/27 02:43:07;;;;;;;18.48;9.60;;;;;;;1.45;76.13;97741.78;4986639;28;20050;-57
2022/03/27 02:45:34;;;;;;;32.40;12.48;;;;;;;1.37;76.46;97723.34;4986466;28;20055;-57
2022/03/27 02:48:01;;;;;;;33.67;13.52;;;;;;;1.66;76.39;97755.16;4986932;28;20075;-58
2022/03/27 02:50:30;;;;;;;42.67;15.88;;;;;;;1.80;75.95;97743.19;4986323;28;20097;-64
2022/03/27 02:52:58;;;;;;;36.22;14.65;;;;;;;1.88;74.66;97744.44;4987033;28;20054;-64
2022/03/27 02:55:25;;;;;;;23.00;9.32;;;;;;;0.66;79.41;97747.19;4986601;28;20046;-63
2022/03/27 02:57:53;;;;;;;27.20;10.45;;;;;;;0.90;79.50;97750.69;4986558;28;20472;-58
2022/03/27 03:00:21;;;;;;;25.30;11.32;;;;;;;1.05;79.02;97763.34;4986120;28;20441;-64
2022/03/27 03:02:48;;;;;;;26.08;11.93;;;;;;;1.24;78.62;97756.81;4986783;28;20169;-57
2022/03/27 03:05:16;;;;;;;29.88;11.82;;;;;;;1.48;76.88;97757.59;4986273;28;20050;-57
2022/03/27 03:07:44;;;;;;;25.17;12.20;;;;;;;1.64;76.64;97765.53;4986556;28;20054;-64
2022/03/27 03:10:11;;;;;;;20.83;10.77;;;;;;;1.53;76.43;97765.69;4986003;28;20061;-63
2022/03/27 03:12:39;;;;;;;24.75;10.10;;;;;;;1.55;76.43;97774.41;4986868;28;20062;-64
2022/03/27 03:15:07;;;;;;;27.70;11.93;;;;;;;0.58;77.76;97627.06;4986007;28;20407;-57
2022/03/27 03:17:34;;;;;;;32.30;13.07;;;;;;;1.68;76.39;97766.56;4986549;28;20073;-58
2022/03/27 03:20:01;;;;;;;31.95;12.55;;;;;;;1.76;75.84;97776.81;4985806;28;20054;-58
2022/03/27 03:22:28;;;;;;;39.50;15.10;;;;;;;1.78;76.28;97766.41;4986275;28;20868;-58
2022/03/27 03:24:55;;;;;;;35.30;14.70;;;;;;;1.95;74.74;97783.09;4984500;28;20120;-64
2022/03/27 03:27:22;;;;;;;32.40;13.18;;;;;;;2.04;74.69;97770.41;4985899;28;20065;-57
2022/03/27 03:29:48;;;;;;;32.08;13.02;;;;;;;1.72;74.54;97702.06;4985727;28;20112;-64
2022/03/27 03:32:15;;;;;;;29.67;12.93;;;;;;;2.13;73.64;97747.56;4984818;28;20076;-58
2022/03/27 03:34:42;;;;;;;22.85;10.32;;;;;;;2.42;72.57;97771.94;4986428;28;20058;-57
2022/03/27 03:37:09;;;;;;;23.25;11.02;;;;;;;2.49;72.51;97767.69;4986267;28;20058;-60
2022/03/27 03:39:36;;;;;;;28.45;11.63;;;;;;;2.18;72.18;97711.13;4985778;28;20054;-58
2022/03/27 03:42:03;;;;;;;24.85;10.15;;;;;;;2.38;72.71;97760.78;4984321;28;20454;-57
2022/03/27 03:44:30;;;;;;;25.98;9.32;;;;;;;2.59;72.87;97769.44;4998427;28;20148;-64
2022/03/27 03:46:56;;;;;;;24.00;11.05;;;;;;;2.77;71.92;97768.53;4985487;28;20057;-62
2022/03/27 03:49:24;;;;;;;23.27;10.45;;;;;;;2.79;70.79;97782.72;4984148;28;20051;-57
2022/03/27 03:51:51;;;;;;;29.30;12.95;;;;;;;2.69;70.49;97785.63;4985321;28;20415;-58
2022/03/27 03:54:18;;;;;;;25.27;11.68;;;;;;;2.61;70.52;97773.47;4985482;28;20050;-63
2022/03/27 03:56:45;;;;;;;25.92;11.23;;;;;;;2.44;71.02;97758.75;4983766;28;20061;-64
2022/03/27 03:59:12;;;;;;;22.92;10.40;;;;;;;2.44;72.02;97780.63;4985060;28;20556;-64
2022/03/27 04:01:56;;;;;;;39.63;16.30;;;;;;;2.48;71.66;97749.66;4985538;28;20054;-57
2022/03/27 04:04:24;;;;;;;62.90;24.85;;;;;;;2.41;72.04;97721.09;4984980;28;20058;-57
2022/03/27 04:06:51;;;;;;;54.15;19.27;;;;;;;2.39;70.84;97706.91;4983736;28;20054;-58
2022/03/27 04:09:20;;;;;;;39.80;15.95;;;;;;;2.09;71.26;97677.38;4984943;28;20058;-64
2022/03/27 04:11:47;;;;;;;27.15;9.45;;;;;;;1.89;72.25;97789.75;4985273;28;20062;-58
2022/03/27 04:14:14;;;;;;;25.52;9.50;;;;;;;1.46;72.08;97699.75;4985159;28;20054;-64
2022/03/27 04:16:40;;;;;;;37.67;14.75;;;;;;;1.91;73.33;97776.59;4985023;28;20437;-57
2022/03/27 04:19:07;;;;;;;26.20;13.25;;;;;;;1.63;73.30;97714.78;4984403;28;20058;-64
2022/03/27 04:21:34;;;;;;;24.92;11.25;;;;;;;1.73;73.54;97758.31;4984719;28;20055;-64
2022/03/27 04:24:01;;;;;;;35.53;14.27;;;;;;;1.91;73.14;97754.75;4984733;28;20062;-57
2022/03/27 04:26:31;;;;;;;30.70;11.52;;;;;;;1.75;74.63;97761.56;4984969;28;20050;-64
2022/03/27 04:28:58;;;;;;;33.80;14.63;;;;;;;2.09;74.62;97778.47;4985249;28;20068;-64
2022/03/27 04:31:25;;;;;;;38.30;12.98;;;;;;;1.71;74.47;97725.84;4985344;28;20056;-60
2022/03/27 04:33:51;;;;;;;23.55;11.25;;;;;;;2.19;74.30;97789.25;4983885;28;20057;-63
2022/03/27 04:36:18;;;;;;;28.25;10.73;;;;;;;1.85;74.73;97799.66;4984361;28;20061;-57
2022/03/27 04:38:45;;;;;;;25.52;11.05;;;;;;;1.95;73.15;97810.41;4984293;28;20056;-59
2022/03/27 04:41:11;;;;;;;31.95;15.70;;;;;;;1.98;73.29;97782.50;4984487;28;20069;-57
2022/03/27 04:43:38;;;;;;;27.35;13.85;;;;;;;2.20;74.15;97788.13;4984497;28;20415;-64
2022/03/27 04:46:07;;;;;;;35.65;14.63;;;;;;;1.93;73.72;97727.97;4984613;28;20046;-58
2022/03/27 04:48:34;;;;;;;31.40;13.32;;;;;;;1.94;72.91;97705.81;4984440;28;20161;-64
2022/03/27 04:51:01;;;;;;;32.08;15.25;;;;;;;2.04;72.61;97721.22;4984632;28;20099;-64
2022/03/27 04:53:28;;;;;;;37.42;13.10;;;;;;;2.65;72.15;97796.38;4984463;28;20105;-64
2022/03/27 04:55:55;;;;;;;27.65;12.15;;;;;;;2.10;71.61;97670.84;4984042;28;20464;-58
2022/03/27 04:58:22;;;;;;;33.03;12.95;;;;;;;2.51;70.55;97753.72;4984173;28;20502;-64
2022/03/27 05:00:49;;;;;;;31.75;11.15;;;;;;;3.02;70.41;97809.91;4983878;28;20054;-57
2022/03/27 05:03:16;;;;;;;26.92;10.32;;;;;;;3.01;70.39;97780.91;4984363;28;20065;-58
2022/03/27 05:05:44;;;;;;;33.17;13.48;;;;;;;3.20;69.69;97791.75;4982615;28;20472;-58
2022/03/27 05:08:11;;;;;;;26.58;10.52;;;;;;;3.56;68.33;97808.25;4984141;28;20433;-59
2022/03/27 05:10:38;;;;;;;30.50;12.35;;;;;;;3.77;68.41;97804.78;4983687;28;20050;-63
2022/03/27 05:13:07;;;;;;;26.67;12.80;;;;;;;3.59;69.19;97808.44;4983762;28;20434;-65
2022/03/27 05:15:34;;;;;;;27.35;10.60;;;;;;;3.67;68.66;97826.91;4984628;28;20062;-64
2022/03/27 05:18:01;;;;;;;23.45;8.88;;;;;;;3.61;68.11;97828.13;4983458;28;20162;-58
2022/03/27 05:20:30;;;;;;;26.13;10.63;;;;;;;3.57;67.62;97766.88;4982497;28;20070;-60
2022/03/27 05:22:59;;;;;;;24.98;12.00;;;;;;;4.10;66.50;97825.38;4986712;28;20582;-57
2022/03/27 05:25:26;;;;;;;31.88;15.45;;;;;;;3.82;66.70;97752.59;4987432;28;20054;-58
2022/03/27 05:27:55;;;;;;;25.73;11.50;;;;;;;3.49;68.41;97781.31;4987981;28;20090;-61
2022/03/27 05:30:24;;;;;;;32.28;12.32;;;;;;;4.10;68.03;97797.97;4987251;28;20097;-63
2022/03/27 05:32:53;;;;;;;25.45;12.93;;;;;;;4.53;66.38;97823.78;4988296;28;20064;-64
2022/03/27 05:35:21;;;;;;;25.67;11.32;;;;;;;4.77;65.46;97825.38;4987751;28;20125;-64
2022/03/27 05:37:49;;;;;;;24.38;11.35;;;;;;;5.08;64.23;97829.75;4986580;28;20073;-64
2022/03/27 05:40:18;;;;;;;23.45;12.45;;;;;;;5.38;63.65;97828.09;4987540;28;20058;-59
2022/03/27 05:42:46;;;;;;;44.97;19.88;;;;;;;5.29;62.17;97788.81;4987594;28;20580;-63
2022/03/27 05:45:14;;;;;;;46.15;18.80;;;;;;;5.76;61.73;97801.69;4986229;28;20046;-64
2022/03/27 05:47:41;;;;;;;40.47;19.52;;;;;;;6.11;60.13;97830.91;4986109;28;20064;-58
2022/03/27 05:50:14;;;;;;;41.15;20.35;;;;;;;6.47;59.95;97828.63;4987055;28;20100;-64
2022/03/27 05:52:42;;;;;;;42.25;20.85;;;;;;;6.82;58.77;97830.22;4987829;28;20062;-64
2022/03/27 05:55:09;;;;;;;41.85;20.10;;;;;;;7.04;57.77;97805.22;4987559;28;20090;-58
2022/03/27 05:57:36;;;;;;;40.50;19.33;;;;;;;7.36;56.46;97829.44;4986376;28;20058;-57
2022/03/27 06:00:06;;;;;;;33.78;18.08;;;;;;;7.39;56.48;97784.66;4987666;28;20054;-64
2022/03/27 06:02:33;;;;;;;33.88;17.20;;;;;;;7.91;56.56;97825.72;4986294;28;20055;-58
2022/03/27 06:05:00;;;;;;;45.72;23.23;;;;;;;7.89;55.39;97759.06;4987448;28;20082;-58
2022/03/27 06:07:27;;;;;;;50.78;24.73;;;;;;;8.54;53.65;97825.44;4987098;28;20085;-58
2022/03/27 06:09:54;;;;;;;44.25;21.45;;;;;;;8.35;53.01;97728.50;4987075;28;20054;-65
2022/03/27 06:12:20;;;;;;;44.75;19.88;;;;;;;9.17;53.05;97811.16;4987492;28;20054;-60
2022/03/27 06:14:48;;;;;;;37.38;20.88;;;;;;;9.22;52.20;97758.41;4987182;28;20050;-64
2022/03/27 06:17:14;;;;;;;34.50;15.52;;;;;;;9.50;52.82;97809.13;4987237;28;20058;-57
2022/03/27 06:19:41;;;;;;;32.63;13.18;;;;;;;9.36;52.68;97731.25;4987269;28;20057;-59
2022/03/27 06:22:08;;;;;;;52.28;23.50;;;;;;;10.33;51.50;97807.50;4987388;28;20429;-64
2022/03/27 06:24:35;;;;;;;27.13;9.75;;;;;;;10.64;50.65;97810.38;4986518;28;20061;-64
2022/03/27 06:27:02;;;;;;;18.90;9.38;;;;;;;10.96;50.15;97804.94;4987158;28;20062;-65
2022/03/27 06:29:28;;;;;;;18.77;9.07;;;;;;;10.80;48.75;97710.66;4986027;28;20060;-58
2022/03/27 06:31:55;;;;;;;19.00;8.48;;;;;;;11.79;47.61;97800.03;4985134;28;20054;-59
2022/03/27 06:34:22;;;;;;;27.40;12.27;;;;;;;12.20;47.22;97788.31;4985125;28;20584;-61
2022/03/27 06:36:49;;;;;;;19.20;8.18;;;;;;;12.07;50.44;97792.38;4983975;28;20061;-58
2022/03/27 06:39:15;;;;;;;15.02;7.55;;;;;;;12.44;49.35;97810.25;4985100;28;20145;-61
2022/03/27 06:41:42;;;;;;;14.20;7.38;;;;;;;12.39;47.14;97793.09;4986024;28;20348;-65
2022/03/27 06:44:09;;;;;;;17.63;9.38;;;;;;;12.85;47.28;97804.00;4986065;28;20065;-59
2022/03/27 06:46:35;;;;;;;15.85;7.57;;;;;;;13.27;46.69;97798.47;4985273;28;20061;-65
2022/03/27 06:49:02;;;;;;;25.08;13.70;;;;;;;13.07;44.69;97711.47;4985489;28;20054;-59
2022/03/27 06:51:29;;;;;;;16.75;10.68;;;;;;;13.64;43.93;97744.66;4983473;28;20054;-65
2022/03/27 06:53:56;;;;;;;15.43;10.75;;;;;;;14.24;42.84;97797.72;4985786;28;20047;-62
2022/03/27 06:56:22;;;;;;;24.50;10.88;;;;;;;14.53;41.57;97786.63;4983663;28;20050;-65
2022/03/27 06:58:49;;;;;;;20.90;9.85;;;;;;;14.32;40.92;97738.16;4984648;28;20433;-65
2022/03/27 07:04:01;;;;;;;10.02;6.30;;;;;;;14.67;41.06;97788.78;4985996;28;20125;-58
2022/03/27 07:06:28;;;;;;;13.35;6.78;;;;;;;14.93;39.64;97797.09;4985138;28;20137;-65
2022/03/27 07:08:55;;;;;;;9.10;6.28;;;;;;;15.39;38.09;97789.28;4984284;28;20054;-64
2022/03/27 07:11:21;;;;;;;16.02;6.53;;;;;;;15.91;32.43;97792.56;4983459;28;20062;-65
2022/03/27 07:13:48;;;;;;;14.02;7.03;;;;;;;16.18;31.71;97771.59;4985070;28;20056;-60
2022/03/27 07:16:16;;;;;;;10.23;6.43;;;;;;;16.57;30.06;97797.84;4985031;28;20073;-65
2022/03/27 07:18:43;;;;;;;12.35;7.68;;;;;;;16.84;30.01;97800.34;4985287;28;20046;-58
2022/03/27 07:21:09;;;;;;;13.27;6.70;;;;;;;17.09;29.63;97795.66;4985684;28;20622;-58
2022/03/27 07:23:36;;;;;;;12.95;7.07;;;;;;;16.68;29.09;97746.75;4985092;28;20150;-63
2022/03/27 07:26:03;;;;;;;12.82;7.43;;;;;;;16.99;28.75;97841.22;4982876;28;20061;-56
2022/03/27 07:28:31;;;;;;;13.36;7.66;;;;;;;17.06;28.84;97802.03;4971643;28;1203935;-63
2022/03/27 07:30:59;;;;;;;10.40;6.88;;;;;;;17.15;28.93;97799.69;4985766;28;20133;-57
2022/03/27 07:33:27;;;;;;;9.95;6.68;;;;;;;17.09;28.27;97778.84;4985648;28;20504;-57
2022/03/27 07:35:55;;;;;;;11.25;7.07;;;;;;;17.14;28.13;97764.47;4984174;28;20054;-62
2022/03/27 07:38:22;;;;;;;17.35;7.68;;;;;;;17.41;28.50;97796.56;4985346;28;20054;-57
2022/03/27 07:40:49;;;;;;;14.95;7.57;;;;;;;17.16;28.11;97767.69;4985263;28;20058;-59
2022/03/27 07:43:16;;;;;;;10.85;7.05;;;;;;;17.37;28.07;97792.97;4985967;28;20050;-62
2022/03/27 07:45:43;;;;;;;8.15;6.55;;;;;;;17.52;27.74;97803.00;4984749;28;20052;-56
2022/03/27 07:48:09;;;;;;;12.23;7.22;;;;;;;17.65;27.80;97793.03;4985721;28;20065;-63
2022/03/27 07:50:36;;;;;;;11.70;7.05;;;;;;;17.72;27.03;97793.06;4985244;28;20054;-63
2022/03/27 07:53:05;;;;;;;14.25;7.97;;;;;;;17.61;26.90;97795.00;4983658;28;20062;-57
2022/03/27 07:55:33;;;;;;;12.55;8.30;;;;;;;17.53;27.17;97788.59;4985077;28;20062;-63
2022/03/27 07:58:00;;;;;;;14.70;7.68;;;;;;;17.64;27.16;97794.25;4984077;28;20146;-61
2022/03/27 08:00:27;;;;;;;15.80;8.05;;;;;;;17.54;27.19;97783.81;4985241;28;20509;-62
2022/03/27 08:02:55;;;;;;;12.00;7.47;;;;;;;17.53;26.77;97749.38;4985777;28;20089;-63
2022/03/27 08:05:22;;;;;;;11.90;7.47;;;;;;;17.54;26.82;97744.59;4983972;28;20116;-62
2022/03/27 08:07:50;;;;;;;13.88;9.15;;;;;;;17.39;26.56;97720.53;4985578;28;20050;-61
2022/03/27 08:10:17;;;;;;;10.18;7.28;;;;;;;17.95;26.16;97782.25;4984565;28;20104;-61
2022/03/27 08:12:44;;;;;;;15.95;8.48;;;;;;;18.15;25.70;97758.19;4984936;28;20058;-56
2022/03/27 08:15:11;;;;;;;11.55;7.13;;;;;;;18.32;24.81;97773.41;4982756;28;20047;-62
2022/03/27 08:17:38;;;;;;;12.35;7.90;;;;;;;18.46;24.25;97785.44;4983357;28;20052;-57
2022/03/27 08:20:05;;;;;;;11.80;7.57;;;;;;;18.44;24.83;97782.22;4983411;28;20066;-57
2022/03/27 08:22:33;;;;;;;12.55;7.22;;;;;;;18.22;24.94;97748.97;4985118;28;20050;-61
2022/03/27 08:25:00;;;;;;;14.30;7.90;;;;;;;18.54;25.04;97775.78;4983882;28;20050;-57
2022/03/27 08:27:27;;;;;;;14.05;7.15;;;;;;;18.23;25.50;97745.75;4984878;28;20112;-56
2022/03/27 08:29:54;;;;;;;11.90;7.57;;;;;;;18.32;25.57;97774.19;4984041;28;20054;-59
2022/03/27 08:32:20;;;;;;;13.82;7.78;;;;;;;17.96;25.24;97700.53;4984462;28;20145;-62
2022/03/27 08:34:48;;;;;;;11.27;7.35;;;;;;;18.53;25.43;97779.78;4984447;28;20061;-62
2022/03/27 08:37:16;;;;;;;12.00;8.02;;;;;;;18.46;25.21;97774.22;4984490;28;20050;-62
2022/03/27 08:39:47;;;;;;;15.52;8.27;;;;;;;18.59;25.15;97783.78;4984202;28;20053;-64
2022/03/27 08:42:16;;;;;;;13.90;8.18;;;;;;;18.61;24.77;97787.00;4984828;28;20059;-63
2022/03/27 08:44:44;;;;;;;13.65;8.07;;;;;;;18.48;24.84;97771.78;5002678;28;20054;-57
2022/03/27 08:47:18;;;;;;;11.60;6.95;;;;;;;18.45;25.23;97772.59;5004242;28;20585;-57
2022/03/27 08:49:49;;;;;;;10.27;7.45;;;;;;;18.72;25.13;97773.72;5003461;28;20066;-62
2022/03/27 08:52:21;;;;;;;12.65;7.65;;;;;;;18.80;25.61;97778.13;5003745;28;20409;-62
2022/03/27 08:55:05;;;;;;;14.00;8.60;;;;;;;18.72;25.35;97779.34;5002261;28;20060;-62
2022/03/27 08:57:47;;;;;;;12.23;8.90;;;;;;;18.72;25.93;97776.53;5001788;28;20085;-61
2022/03/27 09:00:14;;;;;;;13.00;8.32;;;;;;;18.92;25.48;97752.38;5002197;28;20158;-56
2022/03/27 09:02:41;;;;;;;12.75;8.50;;;;;;;19.07;25.30;97748.31;5004060;28;20050;-62
2022/03/27 09:05:08;;;;;;;15.48;7.68;;;;;;;19.17;25.08;97755.88;5002403;28;20061;-57
2022/03/27 09:07:35;;;;;;;14.38;8.60;;;;;;;19.29;25.12;97761.06;5004080;28;20049;-58
2022/03/27 09:10:07;;;;;;;16.05;10.02;;;;;;;19.37;24.65;97757.00;5003735;28;20169;-55
2022/03/27 09:12:34;;;;;;;14.75;8.65;;;;;;;19.36;24.62;97758.19;5003837;28;20479;-55
2022/03/27 09:15:08;;;;;;;14.10;7.38;;;;;;;19.34;24.48;97763.47;5003366;28;20092;-55
2022/03/27 09:18:04;;;;;;;13.40;8.40;;;;;;;19.37;24.23;97756.22;5003473;28;20098;-58
2022/03/27 09:20:44;;;;;;;15.85;7.78;;;;;;;19.30;24.54;97748.63;5000680;28;20053;-57
2022/03/27 09:23:13;;;;;;;12.18;7.90;;;;;;;19.45;24.15;97732.47;5002348;28;20138;-58
2022/03/27 09:25:58;;;;;;;13.23;8.23;;;;;;;19.43;23.89;97758.19;5001854;28;20097;-57
2022/03/27 09:28:26;;;;;;;14.45;8.10;;;;;;;19.28;24.01;97742.59;5003491;28;20057;-56
2022/03/27 09:30:54;;;;;;;15.05;8.55;;;;;;;19.43;24.64;97748.94;5004092;28;20058;-55
2022/03/27 09:33:46;;;;;;;15.32;8.00;;;;;;;19.53;24.52;97743.25;5004306;28;20116;-61
2022/03/27 09:36:27;;;;;;;15.35;8.00;;;;;;;19.47;24.30;97738.50;5003843;28;20060;-56
2022/03/27 09:39:03;;;;;;;15.18;9.02;;;;;;;19.63;23.82;97746.41;5003790;28;20064;-56
2022/03/27 09:41:35;;;;;;;11.95;7.90;;;;;;;19.05;23.87;97666.47;5003478;28;20049;-55
2022/03/27 09:44:05;;;;;;;13.40;8.38;;;;;;;19.69;24.31;97717.44;4990934;28;20507;-56
2022/03/27 09:46:45;;;;;;;14.40;8.63;;;;;;;19.86;23.92;97715.69;4984153;28;20058;-62
2022/03/27 09:49:12;;;;;;;13.57;8.27;;;;;;;19.34;23.34;97622.97;4983744;28;20062;-62
2022/03/27 09:51:51;;;;;;;16.20;8.60;;;;;;;20.09;23.15;97736.34;4983870;28;20114;-55
2022/03/27 09:54:17;;;;;;;17.05;8.35;;;;;;;20.15;23.31;97743.19;4984173;28;20050;-62
2022/03/27 09:56:44;;;;;;;15.25;9.95;;;;;;;19.91;23.04;97664.63;4984245;28;20053;-56
2022/03/27 09:59:34;;;;;;;16.02;8.82;;;;;;;20.56;22.94;97720.66;4983983;28;20050;-63
2022/03/27 10:02:22;;;;;;;18.02;8.35;;;;;;;20.38;22.50;97717.22;4983379;28;20509;-62
2022/03/27 10:04:54;;;;;;;19.23;8.85;;;;;;;20.50;23.04;97716.69;4983883;28;20136;-55
2022/03/27 10:07:23;;;;;;;12.40;8.85;;;;;;;20.65;22.91;97709.66;4982319;28;20060;-56
2022/03/27 10:09:51;;;;;;;12.48;8.45;;;;;;;20.75;22.77;97706.72;4987322;28;20058;-59
2022/03/27 10:12:18;;;;;;;17.90;9.52;;;;;;;20.76;22.38;97704.72;4985831;28;20062;-61
2022/03/27 10:14:47;;;;;;;14.60;8.80;;;;;;;20.89;21.77;97711.38;4987827;28;20671;-56
2022/03/27 10:17:16;;;;;;;12.00;8.57;;;;;;;20.61;21.99;97644.16;4986149;28;20081;-55
2022/03/27 10:19:50;;;;;;;12.23;8.35;;;;;;;20.97;22.26;97696.03;4987317;28;20085;-55
2022/03/27 10:22:20;;;;;;;18.10;9.20;;;;;;;21.00;21.84;97695.16;4987505;28;20068;-56
2022/03/27 10:24:51;;;;;;;16.10;10.05;;;;;;;20.54;21.96;97700.56;4987321;28;20069;-61
2022/03/27 10:27:23;;;;;;;17.65;10.63;;;;;;;20.46;22.04;97694.22;4987389;28;20105;-61
2022/03/27 10:29:50;;;;;;;22.80;12.77;;;;;;;20.21;22.07;97665.53;4986654;28;20051;-62
2022/03/27 10:32:18;;;;;;;18.15;10.73;;;;;;;20.61;22.23;97689.22;4987224;28;20061;-63
2022/03/27 10:35:14;;;;;;;13.30;8.30;;;;;;;20.57;21.91;97710.97;4987415;28;20288;-62
2022/03/27 10:37:50;;;;;;;14.50;9.55;;;;;;;20.31;22.19;97698.38;4985667;28;20484;-61
2022/03/27 10:40:27;;;;;;;16.17;8.52;;;;;;;20.27;21.93;97696.81;4985141;28;20054;-54
2022/03/27 10:43:02;;;;;;;13.68;8.52;;;;;;;20.79;21.51;97712.31;4988169;28;20053;-62
2022/03/27 10:45:30;;;;;;;14.63;8.90;;;;;;;20.52;21.10;97652.31;5005881;28;20050;-61
2022/03/27 10:48:10;;;;;;;15.35;9.63;;;;;;;21.01;21.03;97699.56;5006071;28;20045;-56
2022/03/27 10:50:55;;;;;;;18.35;9.65;;;;;;;21.38;21.43;97702.28;5005753;28;20060;-55
2022/03/27 10:53:25;;;;;;;14.82;8.50;;;;;;;21.47;20.96;97668.69;5005964;28;20057;-60
2022/03/27 10:55:53;;;;;;;13.10;8.93;;;;;;;21.81;21.12;97741.94;5004792;28;20844;-55
2022/03/27 10:58:28;;;;;;;11.38;7.70;;;;;;;21.30;21.02;97607.78;5005654;28;20045;-56
2022/03/27 11:00:59;;;;;;;13.00;8.70;;;;;;;21.82;20.80;97676.63;5005912;28;20441;-62
2022/03/27 11:03:47;;;;;;;13.98;8.80;;;;;;;21.83;21.36;97691.53;5006017;28;20100;-57
2022/03/27 11:06:47;;;;;;;15.77;9.93;;;;;;;21.88;20.55;97697.47;5005525;28;20443;-56
2022/03/27 11:09:30;;;;;;;12.32;8.75;;;;;;;21.24;21.04;97694.03;5004784;28;20457;-61
2022/03/27 11:11:57;;;;;;;13.25;9.18;;;;;;;20.93;20.89;97689.59;5005733;28;20497;-60
2022/03/27 11:14:52;;;;;;;13.48;8.27;;;;;;;21.32;20.77;97695.53;5005809;28;20084;-57
2022/03/27 11:17:42;;;;;;;14.20;8.93;;;;;;;21.58;19.80;97674.16;5004301;28;20053;-64
2022/03/27 11:20:12;;;;;;;12.43;8.52;;;;;;;21.53;19.98;97672.63;5002989;28;20437;-61
2022/03/27 11:22:53;;;;;;;14.48;9.13;;;;;;;21.44;20.08;97652.66;5005189;28;20104;-61
2022/03/27 11:25:38;;;;;;;12.80;7.97;;;;;;;21.67;20.02;97678.03;5004897;28;20057;-56
2022/03/27 11:28:18;;;;;;;15.20;8.63;;;;;;;21.65;20.27;97674.06;5004121;28;20453;-57
2022/03/27 11:30:48;;;;;;;13.50;7.75;;;;;;;21.38;19.79;97674.09;5005232;28;20113;-56
2022/03/27 11:33:20;;;;;;;13.25;9.18;;;;;;;21.40;20.26;97668.81;5003900;28;20514;-62
2022/03/27 11:36:05;;;;;;;18.35;8.85;;;;;;;21.47;19.73;97663.06;5005201;28;20058;-61
2022/03/27 11:38:54;;;;;;;20.30;9.93;;;;;;;21.49;19.72;97669.09;5003560;28;20077;-62
2022/03/27 11:41:25;;;;;;;13.32;7.85;;;;;;;21.52;19.79;97665.41;5004843;28;20053;-56
2022/03/27 11:43:56;;;;;;;13.95;7.85;;;;;;;21.62;19.51;97658.81;4995165;28;20054;-61